createdAt,value
2018-03-26T00:00:05.839Z,1019.70920238
2018-03-26T00:00:18.014Z,1019.70920238
2018-03-26T00:00:30.179Z,1019.70920238
2018-03-26T00:00:42.631Z,1019.70920238
2018-03-26T00:00:54.777Z,1019.70920238
2018-03-26T00:01:06.917Z,1019.81079403
2018-03-26T00:01:19.070Z,1019.81079403
2018-03-26T00:01:31.221Z,1019.81079403
2018-03-26T00:01:43.373Z,1019.81079403
2018-03-26T00:01:55.511Z,1019.81079403
2018-03-26T00:02:07.651Z,1019.77693015
2018-03-26T00:02:19.828Z,1019.77693015
2018-03-26T00:02:32.127Z,1019.77693015
2018-03-26T00:02:44.323Z,1019.77693015
2018-03-26T00:02:56.457Z,1019.77693015
2018-03-26T00:03:08.583Z,1019.77693015
2018-03-26T00:03:20.721Z,1019.77693015
2018-03-26T00:03:32.866Z,1019.77693015
2018-03-26T00:03:45.043Z,1019.77693015
2018-03-26T00:03:57.269Z,1019.77693015
2018-03-26T00:04:09.423Z,1019.70920238
2018-03-26T00:04:21.561Z,1019.70920238
2018-03-26T00:04:33.736Z,1019.70920238
2018-03-26T00:04:45.875Z,1019.70920238
2018-03-26T00:04:58.016Z,1019.70920238
2018-03-26T00:05:10.178Z,1019.6753385
2018-03-26T00:05:22.322Z,1019.6753385
2018-03-26T00:05:34.464Z,1019.6753385
2018-03-26T00:05:46.631Z,1019.6753385
2018-03-26T00:05:58.781Z,1019.6753385
2018-03-26T00:06:10.907Z,1019.70920238
2018-03-26T00:06:23.049Z,1019.70920238
2018-03-26T00:06:35.203Z,1019.70920238
2018-03-26T00:06:47.345Z,1019.70920238
2018-03-26T00:06:59.523Z,1019.74306626
2018-03-26T00:07:11.669Z,1019.74306626
2018-03-26T00:07:23.814Z,1019.74306626
2018-03-26T00:07:35.955Z,1019.74306626
2018-03-26T00:07:48.222Z,1019.74306626
2018-03-26T00:08:00.363Z,1019.77693015
2018-03-26T00:08:12.498Z,1019.77693015
2018-03-26T00:08:24.633Z,1019.77693015
2018-03-26T00:08:36.792Z,1019.77693015
2018-03-26T00:08:48.973Z,1019.77693015
2018-03-26T00:09:01.133Z,1019.74306626
2018-03-26T00:09:13.303Z,1019.74306626
2018-03-26T00:09:25.436Z,1019.74306626
2018-03-26T00:09:37.576Z,1019.74306626
2018-03-26T00:09:49.721Z,1019.74306626
2018-03-26T00:10:01.889Z,1019.81079403
2018-03-26T00:10:14.051Z,1019.81079403
2018-03-26T00:10:26.182Z,1019.81079403
2018-03-26T00:10:38.329Z,1019.81079403
2018-03-26T00:10:50.459Z,1019.81079403
2018-03-26T00:11:02.605Z,1019.74306626
2018-03-26T00:11:14.754Z,1019.74306626
2018-03-26T00:11:26.899Z,1019.74306626
2018-03-26T00:11:39.043Z,1019.74306626
2018-03-26T00:11:51.255Z,1019.74306626
2018-03-26T00:12:03.409Z,1019.81079403
2018-03-26T00:12:15.620Z,1019.81079403
2018-03-26T00:12:27.830Z,1019.81079403
2018-03-26T00:12:40.017Z,1019.81079403
2018-03-26T00:12:52.311Z,1019.81079403
2018-03-26T00:13:04.461Z,1019.81079403
2018-03-26T00:13:16.614Z,1019.81079403
2018-03-26T00:13:28.748Z,1019.81079403
2018-03-26T00:13:40.871Z,1019.81079403
2018-03-26T00:13:53.019Z,1019.81079403
2018-03-26T00:14:05.161Z,1019.84465791
2018-03-26T00:14:17.297Z,1019.84465791
2018-03-26T00:14:29.432Z,1019.84465791
2018-03-26T00:14:41.571Z,1019.84465791
2018-03-26T00:14:53.718Z,1019.84465791
2018-03-26T00:15:05.885Z,1019.81079403
2018-03-26T00:15:18.027Z,1019.81079403
2018-03-26T00:15:30.153Z,1019.81079403
2018-03-26T00:15:42.349Z,1019.81079403
2018-03-26T00:15:54.490Z,1019.81079403
2018-03-26T00:16:06.656Z,1019.84465791
2018-03-26T00:16:18.822Z,1019.84465791
2018-03-26T00:16:30.965Z,1019.84465791
2018-03-26T00:16:43.098Z,1019.84465791
2018-03-26T00:16:55.238Z,1019.84465791
2018-03-26T00:17:07.426Z,1019.77693015
2018-03-26T00:17:19.571Z,1019.77693015
2018-03-26T00:17:31.702Z,1019.77693015
2018-03-26T00:17:43.852Z,1019.77693015
2018-03-26T00:17:56.021Z,1019.77693015
2018-03-26T00:18:08.148Z,1019.74306626
2018-03-26T00:18:20.284Z,1019.74306626
2018-03-26T00:18:32.466Z,1019.74306626
2018-03-26T00:18:44.601Z,1019.74306626
2018-03-26T00:18:56.744Z,1019.74306626
2018-03-26T00:19:08.889Z,1019.77693015
2018-03-26T00:19:21.101Z,1019.77693015
2018-03-26T00:19:33.237Z,1019.77693015
2018-03-26T00:19:45.389Z,1019.77693015
2018-03-26T00:19:57.570Z,1019.77693015
2018-03-26T00:20:09.726Z,1019.81079403
2018-03-26T00:20:21.880Z,1019.81079403
2018-03-26T00:20:34.022Z,1019.81079403
2018-03-26T00:20:46.170Z,1019.81079403
2018-03-26T00:20:58.312Z,1019.81079403
2018-03-26T00:21:10.471Z,1019.81079403
2018-03-26T00:21:22.608Z,1019.81079403
2018-03-26T00:21:34.729Z,1019.81079403
2018-03-26T00:21:46.905Z,1019.81079403
2018-03-26T00:21:59.342Z,1019.81079403
2018-03-26T00:22:11.503Z,1019.81079403
2018-03-26T00:22:23.662Z,1019.81079403
2018-03-26T00:22:35.836Z,1019.81079403
2018-03-26T00:22:47.972Z,1019.81079403
2018-03-26T00:23:00.145Z,1019.70920238
2018-03-26T00:23:12.295Z,1019.70920238
2018-03-26T00:23:24.425Z,1019.70920238
2018-03-26T00:23:36.576Z,1019.70920238
2018-03-26T00:23:48.725Z,1019.70920238
2018-03-26T00:24:00.874Z,1019.74306626
2018-03-26T00:24:13.029Z,1019.74306626
2018-03-26T00:24:25.166Z,1019.74306626
2018-03-26T00:24:37.333Z,1019.74306626
2018-03-26T00:24:49.490Z,1019.74306626
2018-03-26T00:25:01.688Z,1019.74306626
2018-03-26T00:25:13.834Z,1019.74306626
2018-03-26T00:25:25.959Z,1019.74306626
2018-03-26T00:25:38.123Z,1019.74306626
2018-03-26T00:25:50.284Z,1019.74306626
2018-03-26T00:26:02.458Z,1019.81079403
2018-03-26T00:26:14.577Z,1019.81079403
2018-03-26T00:26:26.769Z,1019.81079403
2018-03-26T00:26:38.907Z,1019.81079403
2018-03-26T00:26:51.076Z,1019.81079403
2018-03-26T00:27:03.208Z,1019.74306626
2018-03-26T00:27:15.681Z,1019.74306626
2018-03-26T00:27:27.922Z,1019.74306626
2018-03-26T00:27:40.073Z,1019.74306626
2018-03-26T00:27:52.362Z,1019.74306626
2018-03-26T00:28:04.513Z,1019.81079403
2018-03-26T00:28:16.698Z,1019.81079403
2018-03-26T00:28:28.843Z,1019.81079403
2018-03-26T00:28:40.975Z,1019.81079403
2018-03-26T00:28:53.124Z,1019.81079403
2018-03-26T00:29:05.298Z,1019.81079403
2018-03-26T00:29:17.461Z,1019.81079403
2018-03-26T00:29:29.601Z,1019.81079403
2018-03-26T00:29:41.727Z,1019.81079403
2018-03-26T00:29:53.905Z,1019.81079403
2018-03-26T00:30:06.047Z,1019.84465791
2018-03-26T00:30:18.217Z,1019.84465791
2018-03-26T00:30:30.362Z,1019.84465791
2018-03-26T00:30:42.508Z,1019.84465791
2018-03-26T00:30:54.635Z,1019.84465791
2018-03-26T00:31:06.769Z,1019.81079403
2018-03-26T00:31:18.912Z,1019.81079403
2018-03-26T00:31:31.049Z,1019.81079403
2018-03-26T00:31:43.206Z,1019.81079403
2018-03-26T00:31:55.347Z,1019.81079403
2018-03-26T00:32:07.483Z,1019.81079403
2018-03-26T00:32:19.622Z,1019.81079403
2018-03-26T00:32:31.779Z,1019.81079403
2018-03-26T00:32:43.928Z,1019.81079403
2018-03-26T00:32:56.112Z,1019.81079403
2018-03-26T00:33:08.253Z,1019.84465791
2018-03-26T00:33:20.364Z,1019.84465791
2018-03-26T00:33:32.504Z,1019.84465791
2018-03-26T00:33:44.634Z,1019.84465791
2018-03-26T00:33:56.767Z,1019.84465791
2018-03-26T00:34:08.928Z,1019.81079403
2018-03-26T00:34:21.141Z,1019.81079403
2018-03-26T00:34:33.308Z,1019.81079403
2018-03-26T00:34:45.513Z,1019.81079403
2018-03-26T00:34:58.080Z,1019.81079403
2018-03-26T00:35:10.226Z,1019.77693015
2018-03-26T00:35:22.364Z,1019.77693015
2018-03-26T00:35:34.504Z,1019.77693015
2018-03-26T00:35:46.649Z,1019.77693015
2018-03-26T00:35:58.789Z,1019.77693015
2018-03-26T00:36:10.925Z,1019.70920238
2018-03-26T00:36:23.150Z,1019.70920238
2018-03-26T00:36:35.271Z,1019.70920238
2018-03-26T00:36:47.429Z,1019.70920238
2018-03-26T00:36:59.613Z,1019.77693015
2018-03-26T00:37:11.815Z,1019.77693015
2018-03-26T00:37:24.011Z,1019.77693015
2018-03-26T00:37:36.237Z,1019.77693015
2018-03-26T00:37:48.419Z,1019.77693015
2018-03-26T00:38:00.554Z,1019.81079403
2018-03-26T00:38:12.692Z,1019.81079403
2018-03-26T00:38:24.830Z,1019.81079403
2018-03-26T00:38:37.025Z,1019.81079403
2018-03-26T00:38:49.193Z,1019.81079403
2018-03-26T00:39:01.350Z,1019.84465791
2018-03-26T00:39:13.499Z,1019.84465791
2018-03-26T00:39:25.661Z,1019.84465791
2018-03-26T00:39:37.787Z,1019.84465791
2018-03-26T00:39:49.932Z,1019.84465791
2018-03-26T00:40:02.065Z,1019.81079403
2018-03-26T00:40:14.220Z,1019.81079403
2018-03-26T00:40:26.410Z,1019.81079403
2018-03-26T00:40:38.574Z,1019.81079403
2018-03-26T00:40:50.712Z,1019.81079403
2018-03-26T00:41:02.850Z,1019.81079403
2018-03-26T00:41:15.134Z,1019.81079403
2018-03-26T00:41:27.383Z,1019.81079403
2018-03-26T00:41:39.557Z,1019.81079403
2018-03-26T00:41:51.694Z,1019.81079403
2018-03-26T00:42:03.840Z,1019.77693015
2018-03-26T00:42:16.010Z,1019.77693015
2018-03-26T00:42:28.138Z,1019.77693015
2018-03-26T00:42:40.289Z,1019.77693015
2018-03-26T00:42:52.423Z,1019.77693015
2018-03-26T00:43:04.610Z,1019.70920238
2018-03-26T00:43:16.772Z,1019.70920238
2018-03-26T00:43:28.913Z,1019.70920238
2018-03-26T00:43:41.056Z,1019.70920238
2018-03-26T00:43:53.215Z,1019.70920238
2018-03-26T00:44:05.372Z,1019.74306626
2018-03-26T00:44:17.545Z,1019.74306626
2018-03-26T00:44:29.685Z,1019.74306626
2018-03-26T00:44:41.834Z,1019.74306626
2018-03-26T00:44:53.966Z,1019.74306626
2018-03-26T00:45:06.106Z,1019.70920238
2018-03-26T00:45:18.234Z,1019.70920238
2018-03-26T00:45:30.356Z,1019.70920238
2018-03-26T00:45:42.525Z,1019.70920238
2018-03-26T00:45:54.661Z,1019.70920238
2018-03-26T00:46:06.810Z,1019.6753385
2018-03-26T00:46:19.345Z,1019.6753385
2018-03-26T00:46:31.499Z,1019.6753385
2018-03-26T00:46:43.635Z,1019.6753385
2018-03-26T00:46:55.782Z,1019.6753385
2018-03-26T00:47:07.917Z,1019.6753385
2018-03-26T00:47:20.108Z,1019.6753385
2018-03-26T00:47:32.269Z,1019.6753385
2018-03-26T00:47:44.395Z,1019.6753385
2018-03-26T00:47:56.702Z,1019.6753385
2018-03-26T00:48:08.866Z,1019.6753385
2018-03-26T00:48:21.002Z,1019.6753385
2018-03-26T00:48:33.162Z,1019.6753385
2018-03-26T00:48:45.312Z,1019.6753385
2018-03-26T00:48:57.454Z,1019.6753385
2018-03-26T00:49:09.680Z,1019.74306626
2018-03-26T00:49:21.854Z,1019.74306626
2018-03-26T00:49:34.034Z,1019.74306626
2018-03-26T00:49:46.173Z,1019.74306626
2018-03-26T00:49:58.314Z,1019.74306626
2018-03-26T00:50:10.513Z,1019.74306626
2018-03-26T00:50:22.706Z,1019.74306626
2018-03-26T00:50:34.843Z,1019.74306626
2018-03-26T00:50:47.006Z,1019.74306626
2018-03-26T00:50:59.126Z,1019.74306626
2018-03-26T00:51:11.302Z,1019.70920238
2018-03-26T00:51:23.435Z,1019.70920238
2018-03-26T00:51:35.573Z,1019.70920238
2018-03-26T00:51:47.723Z,1019.70920238
2018-03-26T00:51:59.856Z,1019.6753385
2018-03-26T00:52:11.996Z,1019.6753385
2018-03-26T00:52:24.133Z,1019.6753385
2018-03-26T00:52:36.264Z,1019.6753385
2018-03-26T00:52:48.609Z,1019.6753385
2018-03-26T00:53:00.787Z,1019.84465791
2018-03-26T00:53:12.933Z,1019.84465791
2018-03-26T00:53:25.054Z,1019.84465791
2018-03-26T00:53:37.194Z,1019.84465791
2018-03-26T00:53:49.339Z,1019.84465791
2018-03-26T00:54:01.468Z,1019.77693015
2018-03-26T00:54:13.645Z,1019.77693015
2018-03-26T00:54:25.790Z,1019.77693015
2018-03-26T00:54:37.937Z,1019.77693015
2018-03-26T00:54:50.073Z,1019.77693015
2018-03-26T00:55:02.380Z,1019.70920238
2018-03-26T00:55:14.513Z,1019.70920238
2018-03-26T00:55:26.729Z,1019.70920238
2018-03-26T00:55:38.862Z,1019.70920238
2018-03-26T00:55:51.017Z,1019.70920238
2018-03-26T00:56:03.154Z,1019.77693015
2018-03-26T00:56:15.282Z,1019.77693015
2018-03-26T00:56:27.431Z,1019.77693015
2018-03-26T00:56:39.710Z,1019.77693015
2018-03-26T00:56:51.844Z,1019.77693015
2018-03-26T00:57:04.315Z,1019.77693015
2018-03-26T00:57:16.444Z,1019.77693015
2018-03-26T00:57:28.602Z,1019.77693015
2018-03-26T00:57:40.723Z,1019.77693015
2018-03-26T00:57:52.859Z,1019.77693015
2018-03-26T00:58:05.013Z,1019.81079403
2018-03-26T00:58:17.136Z,1019.81079403
2018-03-26T00:58:29.273Z,1019.81079403
2018-03-26T00:58:41.433Z,1019.81079403
2018-03-26T00:58:53.566Z,1019.81079403
2018-03-26T00:59:05.706Z,1019.70920238
2018-03-26T00:59:17.850Z,1019.70920238
2018-03-26T00:59:29.999Z,1019.70920238
2018-03-26T00:59:42.140Z,1019.70920238
2018-03-26T00:59:54.272Z,1019.70920238
2018-03-26T01:00:06.413Z,1019.70920238
2018-03-26T01:00:18.596Z,1019.70920238
2018-03-26T01:00:30.738Z,1019.70920238
2018-03-26T01:00:43.069Z,1019.70920238
2018-03-26T01:00:55.360Z,1019.70920238
2018-03-26T01:01:07.495Z,1019.70920238
2018-03-26T01:01:19.663Z,1019.70920238
2018-03-26T01:01:31.825Z,1019.70920238
2018-03-26T01:01:43.959Z,1019.70920238
2018-03-26T01:01:56.101Z,1019.70920238
2018-03-26T01:02:08.284Z,1019.77693015
2018-03-26T01:02:20.429Z,1019.77693015
2018-03-26T01:02:33.081Z,1019.77693015
2018-03-26T01:02:45.245Z,1019.77693015
2018-03-26T01:02:57.394Z,1019.77693015
2018-03-26T01:03:09.533Z,1019.70920238
2018-03-26T01:03:21.659Z,1019.70920238
2018-03-26T01:03:33.792Z,1019.70920238
2018-03-26T01:03:45.972Z,1019.70920238
2018-03-26T01:03:58.116Z,1019.70920238
2018-03-26T01:04:10.256Z,1019.77693015
2018-03-26T01:04:22.383Z,1019.77693015
2018-03-26T01:04:34.569Z,1019.77693015
2018-03-26T01:04:46.701Z,1019.77693015
2018-03-26T01:04:58.829Z,1019.77693015
2018-03-26T01:05:11.007Z,1019.74306626
2018-03-26T01:05:23.149Z,1019.74306626
2018-03-26T01:05:35.283Z,1019.74306626
2018-03-26T01:05:47.427Z,1019.74306626
2018-03-26T01:05:59.565Z,1019.81079403
2018-03-26T01:06:11.704Z,1019.81079403
2018-03-26T01:06:23.875Z,1019.81079403
2018-03-26T01:06:36.034Z,1019.81079403
2018-03-26T01:06:48.166Z,1019.81079403
2018-03-26T01:07:00.380Z,1019.77693015
2018-03-26T01:07:12.525Z,1019.77693015
2018-03-26T01:07:24.652Z,1019.77693015
2018-03-26T01:07:36.783Z,1019.77693015
2018-03-26T01:07:48.921Z,1019.77693015
2018-03-26T01:08:01.050Z,1019.77693015
2018-03-26T01:08:13.184Z,1019.77693015
2018-03-26T01:08:25.342Z,1019.77693015
2018-03-26T01:08:37.550Z,1019.77693015
2018-03-26T01:08:49.680Z,1019.77693015
2018-03-26T01:09:01.900Z,1019.77693015
2018-03-26T01:09:14.077Z,1019.77693015
2018-03-26T01:09:26.237Z,1019.77693015
2018-03-26T01:09:38.383Z,1019.77693015
2018-03-26T01:09:50.580Z,1019.77693015
2018-03-26T01:10:02.739Z,1019.84465791
2018-03-26T01:10:14.906Z,1019.84465791
2018-03-26T01:10:27.046Z,1019.84465791
2018-03-26T01:10:39.200Z,1019.84465791
2018-03-26T01:10:51.338Z,1019.84465791
2018-03-26T01:11:03.485Z,1019.77693015
2018-03-26T01:11:15.627Z,1019.77693015
2018-03-26T01:11:27.835Z,1019.77693015
2018-03-26T01:11:40.056Z,1019.77693015
2018-03-26T01:11:52.201Z,1019.77693015
2018-03-26T01:12:04.439Z,1019.84465791
2018-03-26T01:12:16.595Z,1019.84465791
2018-03-26T01:12:28.757Z,1019.84465791
2018-03-26T01:12:40.909Z,1019.84465791
2018-03-26T01:12:53.212Z,1019.84465791
2018-03-26T01:13:05.791Z,1019.87852179
2018-03-26T01:13:17.925Z,1019.87852179
2018-03-26T01:13:30.071Z,1019.87852179
2018-03-26T01:13:42.211Z,1019.87852179
2018-03-26T01:13:54.359Z,1019.87852179
2018-03-26T01:14:06.503Z,1019.77693015
2018-03-26T01:14:18.642Z,1019.77693015
2018-03-26T01:14:30.789Z,1019.77693015
2018-03-26T01:14:42.915Z,1019.77693015
2018-03-26T01:14:55.048Z,1019.77693015
2018-03-26T01:15:07.238Z,1019.81079403
2018-03-26T01:15:19.377Z,1019.81079403
2018-03-26T01:15:31.508Z,1019.81079403
2018-03-26T01:15:43.663Z,1019.81079403
2018-03-26T01:15:55.790Z,1019.81079403
2018-03-26T01:16:07.919Z,1019.81079403
2018-03-26T01:16:20.075Z,1019.81079403
2018-03-26T01:16:32.255Z,1019.81079403
2018-03-26T01:16:44.384Z,1019.81079403
2018-03-26T01:16:56.529Z,1019.81079403
2018-03-26T01:17:08.661Z,1019.87852179
2018-03-26T01:17:20.803Z,1019.87852179
2018-03-26T01:17:32.940Z,1019.87852179
2018-03-26T01:17:45.176Z,1019.87852179
2018-03-26T01:17:57.464Z,1019.87852179
2018-03-26T01:18:09.622Z,1019.87852179
2018-03-26T01:18:21.758Z,1019.87852179
2018-03-26T01:18:33.913Z,1019.87852179
2018-03-26T01:18:46.098Z,1019.87852179
2018-03-26T01:18:58.221Z,1019.87852179
2018-03-26T01:19:10.375Z,1019.91238567
2018-03-26T01:19:22.500Z,1019.91238567
2018-03-26T01:19:34.648Z,1019.91238567
2018-03-26T01:19:46.787Z,1019.91238567
2018-03-26T01:19:58.925Z,1019.91238567
2018-03-26T01:20:11.065Z,1019.91238567
2018-03-26T01:20:23.223Z,1019.91238567
2018-03-26T01:20:35.357Z,1019.91238567
2018-03-26T01:20:47.502Z,1019.91238567
2018-03-26T01:20:59.630Z,1019.84465791
2018-03-26T01:21:11.763Z,1019.84465791
2018-03-26T01:21:23.910Z,1019.84465791
2018-03-26T01:21:36.063Z,1019.84465791
2018-03-26T01:21:48.207Z,1019.84465791
2018-03-26T01:22:00.340Z,1019.87852179
2018-03-26T01:22:12.489Z,1019.87852179
2018-03-26T01:22:24.631Z,1019.87852179
2018-03-26T01:22:36.760Z,1019.87852179
2018-03-26T01:22:48.903Z,1019.87852179
2018-03-26T01:23:01.112Z,1019.87852179
2018-03-26T01:23:13.241Z,1019.87852179
2018-03-26T01:23:25.400Z,1019.87852179
2018-03-26T01:23:37.529Z,1019.87852179
2018-03-26T01:23:49.660Z,1019.87852179
2018-03-26T01:24:01.824Z,1019.91238567
2018-03-26T01:24:13.966Z,1019.91238567
2018-03-26T01:24:26.090Z,1019.91238567
2018-03-26T01:24:38.220Z,1019.91238567
2018-03-26T01:24:50.339Z,1019.91238567
2018-03-26T01:25:02.473Z,1019.87852179
2018-03-26T01:25:14.624Z,1019.87852179
2018-03-26T01:25:26.796Z,1019.87852179
2018-03-26T01:25:38.939Z,1019.87852179
2018-03-26T01:25:51.064Z,1019.87852179
2018-03-26T01:26:03.198Z,1019.91238567
2018-03-26T01:26:15.335Z,1019.91238567
2018-03-26T01:26:27.474Z,1019.91238567
2018-03-26T01:26:39.618Z,1019.91238567
2018-03-26T01:26:51.759Z,1019.91238567
2018-03-26T01:27:03.889Z,1019.94624955
2018-03-26T01:27:16.039Z,1019.94624955
2018-03-26T01:27:28.174Z,1019.94624955
2018-03-26T01:27:40.319Z,1019.94624955
2018-03-26T01:27:52.660Z,1019.94624955
2018-03-26T01:28:04.789Z,1019.87852179
2018-03-26T01:28:16.970Z,1019.87852179
2018-03-26T01:28:29.104Z,1019.87852179
2018-03-26T01:28:41.236Z,1019.87852179
2018-03-26T01:28:53.363Z,1019.87852179
2018-03-26T01:29:05.500Z,1019.87852179
2018-03-26T01:29:17.690Z,1019.87852179
2018-03-26T01:29:29.832Z,1019.87852179
2018-03-26T01:29:41.988Z,1019.87852179
2018-03-26T01:29:54.148Z,1019.87852179
2018-03-26T01:30:06.289Z,1019.91238567
2018-03-26T01:30:18.415Z,1019.91238567
2018-03-26T01:30:30.578Z,1019.91238567
2018-03-26T01:30:42.725Z,1019.91238567
2018-03-26T01:30:54.855Z,1019.91238567
2018-03-26T01:31:07.022Z,1019.91238567
2018-03-26T01:31:19.142Z,1019.91238567
2018-03-26T01:31:31.278Z,1019.91238567
2018-03-26T01:31:43.424Z,1019.91238567
2018-03-26T01:31:55.556Z,1019.91238567
2018-03-26T01:32:07.687Z,1019.94624955
2018-03-26T01:32:19.870Z,1019.94624955
2018-03-26T01:32:32.014Z,1019.94624955
2018-03-26T01:32:44.152Z,1019.94624955
2018-03-26T01:32:56.265Z,1019.94624955
2018-03-26T01:33:08.394Z,1019.91238567
2018-03-26T01:33:20.580Z,1019.91238567
2018-03-26T01:33:32.716Z,1019.91238567
2018-03-26T01:33:44.847Z,1019.91238567
2018-03-26T01:33:57.012Z,1019.91238567
2018-03-26T01:34:09.146Z,1019.87852179
2018-03-26T01:34:21.268Z,1019.87852179
2018-03-26T01:34:33.420Z,1019.87852179
2018-03-26T01:34:45.573Z,1019.87852179
2018-03-26T01:34:57.783Z,1019.87852179
2018-03-26T01:35:09.909Z,1019.91238567
2018-03-26T01:35:22.030Z,1019.91238567
2018-03-26T01:35:34.179Z,1019.91238567
2018-03-26T01:35:46.305Z,1019.91238567
2018-03-26T01:35:58.446Z,1019.91238567
2018-03-26T01:36:10.578Z,1019.87852179
2018-03-26T01:36:22.783Z,1019.87852179
2018-03-26T01:36:34.989Z,1019.87852179
2018-03-26T01:36:47.112Z,1019.87852179
2018-03-26T01:36:59.253Z,1019.91238567
2018-03-26T01:37:11.415Z,1019.91238567
2018-03-26T01:37:23.548Z,1019.91238567
2018-03-26T01:37:35.827Z,1019.91238567
2018-03-26T01:37:47.974Z,1019.91238567
2018-03-26T01:38:00.119Z,1019.94624955
2018-03-26T01:38:12.256Z,1019.94624955
2018-03-26T01:38:24.390Z,1019.94624955
2018-03-26T01:38:36.513Z,1019.94624955
2018-03-26T01:38:48.667Z,1019.94624955
2018-03-26T01:39:00.824Z,1019.94624955
2018-03-26T01:39:13.008Z,1019.94624955
2018-03-26T01:39:25.292Z,1019.94624955
2018-03-26T01:39:37.427Z,1019.94624955
2018-03-26T01:39:49.573Z,1019.94624955
2018-03-26T01:40:01.734Z,1019.87852179
2018-03-26T01:40:13.961Z,1019.87852179
2018-03-26T01:40:26.094Z,1019.87852179
2018-03-26T01:40:38.214Z,1019.87852179
2018-03-26T01:40:50.362Z,1019.87852179
2018-03-26T01:41:02.513Z,1019.94624955
2018-03-26T01:41:14.816Z,1019.94624955
2018-03-26T01:41:26.963Z,1019.94624955
2018-03-26T01:41:39.094Z,1019.94624955
2018-03-26T01:41:51.245Z,1019.94624955
2018-03-26T01:42:03.382Z,1020.0478412
2018-03-26T01:42:15.527Z,1020.0478412
2018-03-26T01:42:27.671Z,1020.0478412
2018-03-26T01:42:39.820Z,1020.0478412
2018-03-26T01:42:51.963Z,1020.0478412
2018-03-26T01:43:04.116Z,1019.98011344
2018-03-26T01:43:16.350Z,1019.98011344
2018-03-26T01:43:28.547Z,1019.98011344
2018-03-26T01:43:40.683Z,1019.98011344
2018-03-26T01:43:52.814Z,1019.98011344
2018-03-26T01:44:04.949Z,1020.01397732
2018-03-26T01:44:17.078Z,1020.01397732
2018-03-26T01:44:29.208Z,1020.01397732
2018-03-26T01:44:41.365Z,1020.01397732
2018-03-26T01:44:53.492Z,1020.01397732
2018-03-26T01:45:05.661Z,1020.08170508
2018-03-26T01:45:17.794Z,1020.08170508
2018-03-26T01:45:29.928Z,1020.08170508
2018-03-26T01:45:42.080Z,1020.08170508
2018-03-26T01:45:54.214Z,1020.08170508
2018-03-26T01:46:06.338Z,1020.0478412
2018-03-26T01:46:18.521Z,1020.0478412
2018-03-26T01:46:30.636Z,1020.0478412
2018-03-26T01:46:42.771Z,1020.0478412
2018-03-26T01:46:54.962Z,1020.0478412
2018-03-26T01:47:07.119Z,1020.11556896
2018-03-26T01:47:19.259Z,1020.11556896
2018-03-26T01:47:31.407Z,1020.11556896
2018-03-26T01:47:43.555Z,1020.11556896
2018-03-26T01:47:55.851Z,1020.11556896
2018-03-26T01:48:07.994Z,1020.14943284
2018-03-26T01:48:20.148Z,1020.14943284
2018-03-26T01:48:32.306Z,1020.14943284
2018-03-26T01:48:44.476Z,1020.14943284
2018-03-26T01:48:56.596Z,1020.14943284
2018-03-26T01:49:08.735Z,1020.0478412
2018-03-26T01:49:20.887Z,1020.0478412
2018-03-26T01:49:33.037Z,1020.0478412
2018-03-26T01:49:45.175Z,1020.0478412
2018-03-26T01:49:57.296Z,1020.0478412
2018-03-26T01:50:09.449Z,1020.01397732
2018-03-26T01:50:21.604Z,1020.01397732
2018-03-26T01:50:33.750Z,1020.01397732
2018-03-26T01:50:45.898Z,1020.01397732
2018-03-26T01:50:58.032Z,1020.01397732
2018-03-26T01:51:10.169Z,1020.0478412
2018-03-26T01:51:22.321Z,1020.0478412
2018-03-26T01:51:34.490Z,1020.0478412
2018-03-26T01:51:46.624Z,1020.0478412
2018-03-26T01:51:58.801Z,1020.0478412
2018-03-26T01:52:11.083Z,1020.11556896
2018-03-26T01:52:23.233Z,1020.11556896
2018-03-26T01:52:35.398Z,1020.11556896
2018-03-26T01:52:47.737Z,1020.11556896
2018-03-26T01:52:59.916Z,1020.14943284
2018-03-26T01:53:12.059Z,1020.14943284
2018-03-26T01:53:24.187Z,1020.14943284
2018-03-26T01:53:36.379Z,1020.14943284
2018-03-26T01:53:48.511Z,1020.14943284
2018-03-26T01:54:00.660Z,1020.08170508
2018-03-26T01:54:12.889Z,1020.08170508
2018-03-26T01:54:25.093Z,1020.08170508
2018-03-26T01:54:37.225Z,1020.08170508
2018-03-26T01:54:49.436Z,1020.08170508
2018-03-26T01:55:01.675Z,1020.0478412
2018-03-26T01:55:13.827Z,1020.0478412
2018-03-26T01:55:25.962Z,1020.0478412
2018-03-26T01:55:38.106Z,1020.0478412
2018-03-26T01:55:50.294Z,1020.0478412
2018-03-26T01:56:02.455Z,1020.08170508
2018-03-26T01:56:14.603Z,1020.08170508
2018-03-26T01:56:26.742Z,1020.08170508
2018-03-26T01:56:39.180Z,1020.08170508
2018-03-26T01:56:51.322Z,1020.08170508
2018-03-26T01:57:03.461Z,1020.0478412
2018-03-26T01:57:15.590Z,1020.0478412
2018-03-26T01:57:27.722Z,1020.0478412
2018-03-26T01:57:39.857Z,1020.0478412
2018-03-26T01:57:51.982Z,1020.0478412
2018-03-26T01:58:04.129Z,1020.11556896
2018-03-26T01:58:16.263Z,1020.11556896
2018-03-26T01:58:28.398Z,1020.11556896
2018-03-26T01:58:40.547Z,1020.11556896
2018-03-26T01:58:52.703Z,1020.11556896
2018-03-26T01:59:05.083Z,1020.0478412
2018-03-26T01:59:17.328Z,1020.0478412
2018-03-26T01:59:29.488Z,1020.0478412
2018-03-26T01:59:41.615Z,1020.0478412
2018-03-26T01:59:53.776Z,1020.0478412
2018-03-26T02:00:05.945Z,1020.14943284
2018-03-26T02:00:18.120Z,1020.14943284
2018-03-26T02:00:30.309Z,1020.14943284
2018-03-26T02:00:42.440Z,1020.14943284
2018-03-26T02:00:54.928Z,1020.14943284
2018-03-26T02:01:07.082Z,1020.14943284
2018-03-26T02:01:19.231Z,1020.14943284
2018-03-26T02:01:31.389Z,1020.14943284
2018-03-26T02:01:43.531Z,1020.14943284
2018-03-26T02:01:55.660Z,1020.14943284
2018-03-26T02:02:07.830Z,1020.0478412
2018-03-26T02:02:19.962Z,1020.0478412
2018-03-26T02:02:32.280Z,1020.0478412
2018-03-26T02:02:44.414Z,1020.0478412
2018-03-26T02:02:56.583Z,1020.0478412
2018-03-26T02:03:08.782Z,1020.0478412
2018-03-26T02:03:20.925Z,1020.0478412
2018-03-26T02:03:33.062Z,1020.0478412
2018-03-26T02:03:45.204Z,1020.0478412
2018-03-26T02:03:57.343Z,1020.0478412
2018-03-26T02:04:09.485Z,1020.11556896
2018-03-26T02:04:21.634Z,1020.11556896
2018-03-26T02:04:33.805Z,1020.11556896
2018-03-26T02:04:46.183Z,1020.11556896